createdAt,value
2019-01-11T00:00:21.399Z,89.20
2019-01-11T00:02:50.758Z,89.20
2019-01-11T00:05:18.215Z,89.10
2019-01-11T00:07:45.692Z,89.10
2019-01-11T00:10:13.280Z,89.10
2019-01-11T00:12:40.783Z,88.90
2019-01-11T00:15:08.458Z,89.20
2019-01-11T00:17:35.990Z,89.30
2019-01-11T00:20:05.245Z,90.00
2019-01-11T00:22:32.738Z,89.50
2019-01-11T00:25:00.204Z,89.50
2019-01-11T00:27:27.855Z,89.30
2019-01-11T00:29:55.494Z,89.30
2019-01-11T00:32:22.916Z,89.30
2019-01-11T00:34:55.529Z,89.20
2019-01-11T00:37:23.187Z,89.70
2019-01-11T00:39:52.716Z,89.40
2019-01-11T00:42:20.254Z,89.40
2019-01-11T00:44:47.746Z,89.10
2019-01-11T00:47:15.578Z,88.90
2019-01-11T00:49:43.097Z,89.30
2019-01-11T00:52:10.749Z,89.00
2019-01-11T00:54:38.327Z,89.10
2019-01-11T00:57:05.966Z,89.10
2019-01-11T00:59:33.479Z,89.40
2019-01-11T01:02:01.131Z,89.10
2019-01-11T01:04:28.609Z,89.00
2019-01-11T01:06:56.106Z,88.90
2019-01-11T01:09:23.619Z,88.90
2019-01-11T01:11:51.364Z,88.80
2019-01-11T01:14:18.967Z,88.80
2019-01-11T01:16:46.472Z,89.50
2019-01-11T01:19:19.893Z,88.90
2019-01-11T01:24:40.322Z,88.80
2019-01-11T01:27:07.882Z,89.90
2019-01-11T01:29:35.443Z,89.00
2019-01-11T01:32:03.205Z,89.50
2019-01-11T01:34:30.690Z,89.20
2019-01-11T01:36:58.289Z,91.10
2019-01-11T01:39:25.877Z,89.40
2019-01-11T01:41:53.412Z,89.20
2019-01-11T01:44:21.091Z,89.30
2019-01-11T01:46:48.933Z,89.40
2019-01-11T01:49:16.316Z,89.20
2019-01-11T01:51:43.967Z,89.60
2019-01-11T01:54:13.077Z,89.40
2019-01-11T01:56:41.445Z,88.90
2019-01-11T01:59:08.977Z,89.30
2019-01-11T02:01:36.550Z,90.00
2019-01-11T02:04:04.351Z,89.20
2019-01-11T02:06:31.950Z,89.00
2019-01-11T02:08:59.611Z,89.20
2019-01-11T02:11:27.324Z,89.10
2019-01-11T02:13:54.700Z,89.20
2019-01-11T02:16:25.099Z,89.20
2019-01-11T02:18:52.706Z,89.10
2019-01-11T02:21:20.414Z,89.60
2019-01-11T02:23:50.137Z,89.50
2019-01-11T02:26:17.659Z,89.20
2019-01-11T02:28:45.248Z,89.30
2019-01-11T02:31:12.784Z,89.20
2019-01-11T02:33:40.173Z,89.30
2019-01-11T02:36:07.832Z,89.40
2019-01-11T02:38:35.384Z,89.20
2019-01-11T02:41:03.150Z,89.50
2019-01-11T02:43:30.645Z,89.60
2019-01-11T02:45:58.160Z,89.60
2019-01-11T02:48:25.851Z,89.60
2019-01-11T02:50:53.282Z,89.70
2019-01-11T02:53:20.704Z,89.50
2019-01-11T02:55:48.302Z,89.80
2019-01-11T02:58:15.787Z,90.10
2019-01-11T03:00:43.412Z,89.70
2019-01-11T03:03:11.794Z,89.60
2019-01-11T03:05:39.416Z,89.60
2019-01-11T03:08:06.862Z,89.60
2019-01-11T03:10:35.090Z,89.70
2019-01-11T03:13:02.858Z,89.50
2019-01-11T03:15:31.337Z,89.50
2019-01-11T03:17:58.913Z,89.70
2019-01-11T03:20:26.549Z,89.60
2019-01-11T03:22:54.043Z,90.00
2019-01-11T03:25:21.575Z,89.80
2019-01-11T03:27:51.063Z,90.10
2019-01-11T03:30:19.720Z,89.80
2019-01-11T03:32:47.502Z,89.50
2019-01-11T03:35:16.193Z,89.40
2019-01-11T03:37:47.005Z,89.20
2019-01-11T03:40:16.027Z,89.30
2019-01-11T03:42:43.611Z,89.40
2019-01-11T03:45:14.591Z,89.50
2019-01-11T03:47:42.362Z,89.30
2019-01-11T03:50:10.497Z,89.40
2019-01-11T03:52:38.236Z,89.20
2019-01-11T03:55:08.355Z,89.20
2019-01-11T03:57:36.167Z,89.10
2019-01-11T04:00:10.595Z,89.40
2019-01-11T04:02:38.212Z,89.40
2019-01-11T04:05:06.475Z,89.30
2019-01-11T04:07:34.128Z,89.20
2019-01-11T04:10:01.599Z,89.10
2019-01-11T04:12:28.984Z,89.00
2019-01-11T04:14:56.614Z,89.20
2019-01-11T04:17:24.094Z,89.20
2019-01-11T04:19:51.689Z,89.20
2019-01-11T04:22:25.748Z,89.30
2019-01-11T04:25:12.754Z,89.30
2019-01-11T04:27:40.840Z,89.40
2019-01-11T04:30:14.416Z,89.40
2019-01-11T04:32:41.848Z,89.50
2019-01-11T04:35:09.741Z,89.40
2019-01-11T04:37:37.435Z,89.60
2019-01-11T04:40:05.678Z,89.80
2019-01-11T04:42:33.031Z,89.70
2019-01-11T04:45:00.482Z,89.70
2019-01-11T04:47:27.835Z,89.60
2019-01-11T04:49:55.317Z,89.50
2019-01-11T04:52:22.736Z,89.50
2019-01-11T04:54:50.215Z,89.60
2019-01-11T04:57:17.566Z,89.60
2019-01-11T04:59:45.152Z,89.30
2019-01-11T05:02:12.861Z,89.10
2019-01-11T05:04:40.481Z,89.30
2019-01-11T05:07:07.920Z,89.40
2019-01-11T05:09:35.372Z,89.40
2019-01-11T05:12:03.021Z,89.40
2019-01-11T05:14:30.574Z,89.30
2019-01-11T05:16:58.104Z,89.30
2019-01-11T05:19:25.964Z,89.20
2019-01-11T05:21:53.358Z,89.20
2019-01-11T05:24:24.582Z,89.00
2019-01-11T05:26:52.655Z,88.90
2019-01-11T05:29:20.025Z,88.80
2019-01-11T05:31:47.493Z,88.80
2019-01-11T05:34:14.845Z,88.80
2019-01-11T05:36:42.378Z,88.60
2019-01-11T05:39:10.001Z,88.70
2019-01-11T05:41:37.394Z,88.70
2019-01-11T05:44:05.300Z,88.70
2019-01-11T05:46:32.739Z,88.80
2019-01-11T05:49:00.381Z,88.80
2019-01-11T05:51:27.742Z,88.70
2019-01-11T05:53:55.208Z,88.50
2019-01-11T05:56:22.862Z,88.60
2019-01-11T05:58:56.524Z,88.40
2019-01-11T06:01:23.991Z,88.30
2019-01-11T06:03:51.584Z,88.40
2019-01-11T06:06:18.890Z,88.40
2019-01-11T06:08:46.233Z,88.40
2019-01-11T06:11:13.627Z,88.40
2019-01-11T06:13:41.106Z,88.30
2019-01-11T06:16:08.845Z,88.30
2019-01-11T06:18:36.365Z,88.30
2019-01-11T06:21:04.051Z,88.50
2019-01-11T06:23:31.570Z,88.30
2019-01-11T06:26:02.015Z,88.40
2019-01-11T06:28:29.347Z,88.30
2019-01-11T06:30:56.951Z,89.00
2019-01-11T06:33:25.299Z,88.40
2019-01-11T06:35:52.772Z,88.30
2019-01-11T06:38:20.599Z,88.40
2019-01-11T06:40:48.145Z,88.10
2019-01-11T06:43:15.579Z,88.50
2019-01-11T06:45:43.950Z,88.20
2019-01-11T06:48:26.341Z,88.40
2019-01-11T06:50:53.720Z,88.70
2019-01-11T06:53:21.582Z,88.40
2019-01-11T06:55:48.951Z,88.60
2019-01-11T06:58:17.051Z,88.60
2019-01-11T07:00:44.451Z,88.20
2019-01-11T07:03:11.926Z,88.20
2019-01-11T07:05:42.068Z,88.80
2019-01-11T07:08:09.864Z,88.40
2019-01-11T07:10:38.871Z,88.90
2019-01-11T07:13:06.750Z,90.10
2019-01-11T07:15:35.242Z,88.90
2019-01-11T07:18:03.009Z,88.70
2019-01-11T07:20:32.361Z,88.50
2019-01-11T07:23:00.010Z,88.40
2019-01-11T07:25:27.454Z,88.20
2019-01-11T07:28:00.320Z,88.20
2019-01-11T07:30:37.035Z,88.20
2019-01-11T07:33:06.435Z,87.80
2019-01-11T07:35:53.640Z,87.90
2019-01-11T07:38:22.000Z,88.20
2019-01-11T07:40:49.486Z,88.30
2019-01-11T07:43:16.872Z,88.20
2019-01-11T07:45:44.865Z,87.80
2019-01-11T07:48:15.875Z,87.60
2019-01-11T07:50:49.284Z,87.70
2019-01-11T07:53:14.651Z,87.70
2019-01-11T07:55:42.168Z,87.60
2019-01-11T07:58:09.550Z,87.70
2019-01-11T08:00:36.991Z,87.20
2019-01-11T08:03:04.608Z,86.60
2019-01-11T08:05:32.023Z,86.90
2019-01-11T08:07:59.697Z,86.90
2019-01-11T08:10:27.336Z,87.20
2019-01-11T08:12:54.845Z,87.10
2019-01-11T08:15:23.887Z,86.20
2019-01-11T08:17:51.641Z,86.50
2019-01-11T08:20:20.726Z,86.30
2019-01-11T08:22:48.514Z,86.40
2019-01-11T08:25:16.497Z,86.20
2019-01-11T08:27:44.464Z,85.80
2019-01-11T08:30:13.519Z,85.70
2019-01-11T08:32:41.110Z,86.40
2019-01-11T08:35:09.567Z,86.10
2019-01-11T08:37:37.052Z,85.50
2019-01-11T08:40:05.981Z,85.80
2019-01-11T08:42:33.786Z,85.50
2019-01-11T08:45:01.473Z,85.20
2019-01-11T08:47:29.050Z,85.40
2019-01-11T08:49:56.555Z,85.20
2019-01-11T08:52:23.986Z,85.00
2019-01-11T08:54:51.524Z,84.40
2019-01-11T08:57:19.031Z,84.40
2019-01-11T08:59:46.369Z,84.10
2019-01-11T09:02:13.821Z,84.00
2019-01-11T09:04:41.972Z,84.40
2019-01-11T09:07:09.885Z,84.20
2019-01-11T09:09:37.373Z,83.90
2019-01-11T09:12:04.927Z,83.90
2019-01-11T09:14:48.171Z,83.90
2019-01-11T09:17:16.928Z,84.00
2019-01-11T09:19:44.456Z,83.30
2019-01-11T09:22:12.062Z,82.30
2019-01-11T09:24:40.529Z,81.80
2019-01-11T09:27:08.031Z,82.10
2019-01-11T09:29:35.417Z,81.70
2019-01-11T09:32:03.214Z,81.80
2019-01-11T09:34:30.547Z,80.80
2019-01-11T09:36:58.074Z,79.00
2019-01-11T09:39:26.758Z,79.40
2019-01-11T09:41:54.101Z,79.50
2019-01-11T09:44:21.596Z,79.40
2019-01-11T09:46:49.220Z,78.80
2019-01-11T09:49:16.643Z,77.90
2019-01-11T09:51:45.488Z,78.20
2019-01-11T09:54:13.062Z,78.10
2019-01-11T09:56:40.711Z,77.50
2019-01-11T09:59:08.090Z,76.70
2019-01-11T10:01:35.442Z,77.10
2019-01-11T10:04:03.137Z,76.30
2019-01-11T10:06:32.553Z,75.00
2019-01-11T10:08:59.909Z,72.10
2019-01-11T10:11:27.452Z,70.70
2019-01-11T10:13:54.893Z,70.40
2019-01-11T10:16:23.789Z,68.50
2019-01-11T10:18:51.204Z,67.00
2019-01-11T10:21:22.135Z,66.00
2019-01-11T10:23:47.953Z,65.80
2019-01-11T10:26:15.487Z,67.40
2019-01-11T10:28:42.853Z,67.80
2019-01-11T10:31:10.442Z,68.30
2019-01-11T10:33:37.758Z,68.10
2019-01-11T10:36:05.605Z,68.40
2019-01-11T10:38:33.008Z,68.10
2019-01-11T10:41:05.424Z,69.50
2019-01-11T10:43:33.051Z,69.10
2019-01-11T10:46:02.284Z,68.50
2019-01-11T10:48:29.740Z,69.20
2019-01-11T10:50:57.370Z,69.20
2019-01-11T10:53:24.972Z,68.90
2019-01-11T10:55:52.800Z,69.00
2019-01-11T10:58:20.350Z,68.60
2019-01-11T11:00:48.042Z,70.20
2019-01-11T11:03:15.395Z,70.50
2019-01-11T11:05:42.919Z,71.10
2019-01-11T11:08:10.651Z,71.30
2019-01-11T11:10:38.079Z,71.00
2019-01-11T11:13:05.660Z,70.90
2019-01-11T11:15:33.119Z,71.00
2019-01-11T11:18:00.648Z,71.10
2019-01-11T11:20:28.002Z,71.30
2019-01-11T11:22:55.473Z,71.30
2019-01-11T11:25:22.984Z,71.30
2019-01-11T11:27:50.318Z,70.80
2019-01-11T11:30:19.748Z,70.10
2019-01-11T11:32:57.742Z,69.80
2019-01-11T11:35:26.977Z,70.10
2019-01-11T11:37:54.759Z,70.90
2019-01-11T11:40:22.663Z,71.30
2019-01-11T11:42:50.045Z,71.50
2019-01-11T11:45:17.614Z,71.70
2019-01-11T11:47:47.180Z,71.50
2019-01-11T11:50:14.783Z,71.10
2019-01-11T11:52:42.333Z,70.60
2019-01-11T11:55:10.076Z,70.20
2019-01-11T11:57:38.588Z,69.90
2019-01-11T12:00:11.032Z,70.70
2019-01-11T12:02:38.628Z,71.10
2019-01-11T12:05:06.430Z,71.10
2019-01-11T12:07:33.800Z,72.10
2019-01-11T12:10:01.569Z,73.70
2019-01-11T12:12:28.919Z,73.40
2019-01-11T12:14:58.382Z,73.60
2019-01-11T12:17:26.015Z,74.60
2019-01-11T12:19:57.041Z,72.40
2019-01-11T12:22:22.747Z,71.40
2019-01-11T12:24:50.151Z,70.20
2019-01-11T12:27:18.495Z,63.90
2019-01-11T12:29:45.886Z,62.20
2019-01-11T12:32:19.424Z,61.80
2019-01-11T12:34:42.684Z,64.10
2019-01-11T12:37:10.023Z,66.70
2019-01-11T12:39:37.349Z,67.10
2019-01-11T12:42:04.900Z,67.00
2019-01-11T12:44:32.243Z,68.60
2019-01-11T12:46:59.572Z,70.60
2019-01-11T12:49:28.702Z,70.60
2019-01-11T12:51:56.228Z,70.90
2019-01-11T12:54:23.843Z,71.40
2019-01-11T12:56:51.238Z,71.90
2019-01-11T12:59:18.557Z,75.70
2019-01-11T13:01:46.239Z,73.70
2019-01-11T13:04:13.718Z,73.30
2019-01-11T13:06:41.173Z,73.40
2019-01-11T13:09:08.651Z,73.30
2019-01-11T13:11:36.199Z,73.20
2019-01-11T13:14:03.888Z,73.20
2019-01-11T13:16:31.277Z,73.30
2019-01-11T13:18:58.819Z,73.90
2019-01-11T13:21:26.303Z,74.40
2019-01-11T13:23:53.639Z,74.70
2019-01-11T13:26:21.117Z,74.90
2019-01-11T13:28:48.655Z,75.50
2019-01-11T13:31:21.632Z,75.70
2019-01-11T13:33:49.071Z,76.00
2019-01-11T13:36:18.896Z,76.50
2019-01-11T13:38:46.640Z,77.90
2019-01-11T13:41:15.134Z,77.30
2019-01-11T13:43:42.576Z,78.20
2019-01-11T13:46:10.030Z,77.90
2019-01-11T13:48:37.603Z,78.00
2019-01-11T13:51:05.193Z,78.40
2019-01-11T13:53:35.345Z,78.80
2019-01-11T13:56:02.920Z,78.90
2019-01-11T13:58:30.494Z,79.60
2019-01-11T14:00:57.976Z,79.60
2019-01-11T14:03:25.347Z,79.50
2019-01-11T14:05:53.110Z,79.30
2019-01-11T14:08:20.595Z,79.80
2019-01-11T14:10:48.075Z,79.80
2019-01-11T14:13:15.958Z,79.70
2019-01-11T14:15:54.824Z,79.90
2019-01-11T14:18:23.145Z,80.50
2019-01-11T14:20:51.743Z,80.60
2019-01-11T14:23:19.934Z,80.70
2019-01-11T14:25:47.543Z,81.00
2019-01-11T14:28:15.180Z,81.20
2019-01-11T14:30:43.065Z,81.30
2019-01-11T14:33:10.789Z,82.00
2019-01-11T14:35:39.641Z,82.00
2019-01-11T14:38:07.332Z,81.90
2019-01-11T14:40:35.078Z,82.50
2019-01-11T14:43:04.250Z,82.50
2019-01-11T14:45:31.721Z,82.00
2019-01-11T14:47:59.147Z,82.40
2019-01-11T14:50:26.818Z,82.00
2019-01-11T14:52:54.918Z,82.10
2019-01-11T14:55:22.366Z,82.40
2019-01-11T14:57:49.895Z,82.80
2019-01-11T15:00:22.370Z,83.00
2019-01-11T15:02:50.181Z,83.10
2019-01-11T15:05:18.397Z,83.30
2019-01-11T15:07:46.312Z,83.90
2019-01-11T15:10:14.247Z,84.10
2019-01-11T15:12:44.687Z,84.20
2019-01-11T15:15:20.848Z,84.50
2019-01-11T15:17:49.170Z,85.00
2019-01-11T15:20:33.291Z,85.20
2019-01-11T15:23:13.589Z,86.00
2019-01-11T15:25:44.186Z,86.50
2019-01-11T15:28:11.812Z,87.00
2019-01-11T15:30:39.489Z,87.70
2019-01-11T15:33:07.655Z,88.40
2019-01-11T15:35:35.770Z,88.90
2019-01-11T15:38:03.777Z,89.50
2019-01-11T15:40:36.918Z,90.10
2019-01-11T15:43:04.089Z,90.40
2019-01-11T15:45:31.677Z,90.30
2019-01-11T15:47:59.057Z,90.40
2019-01-11T15:50:54.574Z,90.50
2019-01-11T15:53:23.073Z,90.50
2019-01-11T15:55:55.234Z,90.90
2019-01-11T15:58:29.070Z,90.90
2019-01-11T16:00:56.685Z,91.00
2019-01-11T16:03:25.036Z,91.20
2019-01-11T16:06:40.594Z,91.70
2019-01-11T16:09:59.786Z,91.70
2019-01-11T16:12:53.334Z,91.60
2019-01-11T16:16:04.109Z,91.50
2019-01-11T16:18:32.353Z,91.80
2019-01-11T16:21:00.300Z,92.10
2019-01-11T16:23:28.042Z,92.20
2019-01-11T16:25:55.710Z,92.10
2019-01-11T16:28:23.582Z,92.10
2019-01-11T16:30:51.053Z,92.10
2019-01-11T16:33:18.582Z,92.00
2019-01-11T16:35:45.975Z,92.20
2019-01-11T16:38:14.411Z,92.20
2019-01-11T16:40:41.945Z,92.30
2019-01-11T16:43:09.539Z,92.30
2019-01-11T16:45:37.090Z,92.30
2019-01-11T16:48:04.562Z,92.30
2019-01-11T16:50:33.065Z,93.20
2019-01-11T16:53:01.330Z,92.90
2019-01-11T16:55:28.873Z,92.60
2019-01-11T16:57:56.874Z,92.50
2019-01-11T17:00:24.979Z,92.50
2019-01-11T17:02:52.422Z,92.50
2019-01-11T17:05:19.876Z,92.50
2019-01-11T17:07:47.380Z,92.30
2019-01-11T17:10:14.965Z,92.10
2019-01-11T17:12:42.787Z,92.10
2019-01-11T17:15:14.565Z,92.00
2019-01-11T17:17:42.753Z,91.90
2019-01-11T17:20:14.477Z,91.90
2019-01-11T17:22:42.437Z,91.80
2019-01-11T17:25:10.130Z,91.90
2019-01-11T17:27:38.255Z,91.90
2019-01-11T17:30:11.629Z,91.90
2019-01-11T17:32:39.653Z,91.80
2019-01-11T17:35:07.457Z,91.90
2019-01-11T17:37:34.903Z,92.00
2019-01-11T17:40:04.148Z,92.10
2019-01-11T17:42:31.667Z,92.10
2019-01-11T17:44:59.054Z,92.10
2019-01-11T17:47:26.667Z,92.20
2019-01-11T17:50:00.943Z,92.20
2019-01-11T17:52:23.539Z,92.10
2019-01-11T17:54:53.768Z,92.40
2019-01-11T17:57:21.426Z,92.40
2019-01-11T17:59:49.170Z,92.40
2019-01-11T18:02:17.104Z,92.40
2019-01-11T18:04:44.640Z,92.50
2019-01-11T18:07:12.520Z,92.60
2019-01-11T18:09:40.497Z,92.70
2019-01-11T18:12:20.077Z,92.90
2019-01-11T18:14:47.312Z,92.70
2019-01-11T18:17:14.881Z,92.60
2019-01-11T18:19:42.528Z,92.50
2019-01-11T18:22:10.343Z,92.60
2019-01-11T18:24:38.397Z,92.70
2019-01-11T18:27:06.490Z,92.60
2019-01-11T18:29:33.860Z,92.60
2019-01-11T18:32:03.001Z,92.50
2019-01-11T18:34:31.308Z,92.50
2019-01-11T18:36:58.889Z,92.50
2019-01-11T18:39:26.550Z,92.70
2019-01-11T18:41:54.108Z,93.10
2019-01-11T18:44:21.749Z,92.70
2019-01-11T18:46:49.159Z,92.80
2019-01-11T18:49:16.720Z,92.90
2019-01-11T18:51:44.245Z,92.80
2019-01-11T18:54:11.902Z,92.60
2019-01-11T18:56:39.559Z,92.60
2019-01-11T18:59:07.021Z,92.60
2019-01-11T19:01:34.403Z,92.60
2019-01-11T19:04:02.115Z,92.50
2019-01-11T19:06:29.474Z,92.50
2019-01-11T19:08:56.846Z,92.50
2019-01-11T19:11:24.513Z,92.50
2019-01-11T19:13:52.054Z,92.30
2019-01-11T19:16:19.907Z,92.50
2019-01-11T19:18:47.535Z,92.20
2019-01-11T19:21:17.088Z,92.10
2019-01-11T19:23:44.633Z,92.10
2019-01-11T19:26:12.464Z,92.00
2019-01-11T19:28:40.340Z,91.90
2019-01-11T19:31:07.969Z,91.70
2019-01-11T19:33:35.860Z,91.50
2019-01-11T19:36:05.028Z,91.40
2019-01-11T19:38:33.559Z,91.50
2019-01-11T19:41:01.326Z,91.50
2019-01-11T19:43:28.674Z,91.40
2019-01-11T19:45:56.419Z,91.40
2019-01-11T19:48:24.176Z,91.40
2019-01-11T19:50:51.657Z,91.50
2019-01-11T19:53:19.126Z,91.50
2019-01-11T19:55:46.808Z,91.60
2019-01-11T19:58:14.478Z,91.40
2019-01-11T20:00:42.082Z,91.30
2019-01-11T20:03:09.807Z,91.20
2019-01-11T20:05:37.405Z,91.60
2019-01-11T20:08:05.029Z,91.00
2019-01-11T20:10:33.388Z,91.00
2019-01-11T20:13:01.384Z,91.20
2019-01-11T20:15:29.543Z,91.20
2019-01-11T20:17:57.357Z,91.30
2019-01-11T20:20:25.482Z,91.10
2019-01-11T20:23:01.899Z,91.10
2019-01-11T20:25:24.880Z,90.80
2019-01-11T20:27:52.538Z,90.80
2019-01-11T20:30:23.471Z,90.90
2019-01-11T20:32:52.353Z,90.70
2019-01-11T20:35:20.260Z,90.60
2019-01-11T20:37:48.693Z,90.60
2019-01-11T20:40:16.860Z,90.70
2019-01-11T20:42:45.804Z,90.80
2019-01-11T20:45:16.687Z,91.00
2019-01-11T20:47:44.439Z,90.90
2019-01-11T20:50:15.902Z,90.90
2019-01-11T20:52:43.698Z,91.20
2019-01-11T20:55:11.287Z,91.30
2019-01-11T20:57:38.978Z,91.10
2019-01-11T21:00:13.407Z,91.30
2019-01-11T21:02:41.059Z,91.00
2019-01-11T21:05:09.034Z,91.10
2019-01-11T21:07:36.729Z,91.10
2019-01-11T21:10:05.439Z,91.10
2019-01-11T21:12:33.116Z,91.10
2019-01-11T21:15:01.951Z,91.60
2019-01-11T21:17:29.943Z,91.30
2019-01-11T21:19:57.562Z,91.30
2019-01-11T21:22:25.341Z,91.20
2019-01-11T21:24:59.888Z,91.30
2019-01-11T21:27:23.430Z,91.50
2019-01-11T21:29:51.095Z,91.30
2019-01-11T21:32:18.935Z,91.30
2019-01-11T21:34:46.611Z,91.50
2019-01-11T21:37:14.117Z,91.50
2019-01-11T21:39:41.903Z,91.40
2019-01-11T21:42:09.625Z,91.50
2019-01-11T21:44:37.380Z,91.50
2019-01-11T21:47:06.171Z,91.70
2019-01-11T21:49:33.827Z,91.60
2019-01-11T21:52:01.619Z,91.80
2019-01-11T21:54:30.457Z,92.00
2019-01-11T21:56:58.218Z,92.00
2019-01-11T21:59:25.881Z,92.00
2019-01-11T22:01:53.660Z,92.20
2019-01-11T22:04:21.337Z,92.30
2019-01-11T22:06:49.091Z,92.20
2019-01-11T22:09:16.589Z,92.50
2019-01-11T22:11:44.224Z,92.50
2019-01-11T22:14:11.839Z,92.50
2019-01-11T22:16:39.738Z,92.50
2019-01-11T22:19:07.409Z,92.50
2019-01-11T22:21:35.042Z,92.50
2019-01-11T22:24:03.296Z,92.60
2019-01-11T22:26:31.169Z,92.50
2019-01-11T22:28:58.972Z,92.70
2019-01-11T22:31:26.709Z,92.60
2019-01-11T22:33:54.194Z,92.70
2019-01-11T22:36:21.902Z,92.90
2019-01-11T22:38:49.333Z,93.20
2019-01-11T22:41:17.921Z,93.10
2019-01-11T22:43:45.483Z,93.20
2019-01-11T22:46:13.140Z,93.20
2019-01-11T22:48:42.028Z,93.70
2019-01-11T22:51:09.733Z,93.60
2019-01-11T22:53:37.384Z,93.50
2019-01-11T22:56:05.171Z,93.50
2019-01-11T22:58:32.889Z,93.50
2019-01-11T23:01:43.743Z,93.50
2019-01-11T23:04:11.229Z,93.40
2019-01-11T23:07:26.142Z,93.60
2019-01-11T23:10:19.865Z,93.70
2019-01-11T23:13:06.711Z,93.60
2019-01-11T23:15:41.062Z,93.60
2019-01-11T23:18:23.802Z,93.70
2019-01-11T23:21:03.855Z,93.70
2019-01-11T23:23:31.555Z,93.60
2019-01-11T23:25:59.025Z,93.70
2019-01-11T23:28:26.732Z,93.70
2019-01-11T23:30:54.295Z,93.70
2019-01-11T23:33:21.994Z,93.70
2019-01-11T23:35:50.504Z,93.70
2019-01-11T23:38:18.097Z,93.90
2019-01-11T23:40:45.585Z,94.10
2019-01-11T23:43:13.096Z,94.10
2019-01-11T23:45:40.739Z,94.10
2019-01-11T23:48:08.409Z,94.00
2019-01-11T23:50:36.005Z,94.10
2019-01-11T23:53:03.891Z,94.00
2019-01-11T23:55:31.561Z,94.40
2019-01-11T23:57:59.113Z,94.10
